HomeShort term forecast

Short term forecast

Graphical weather forecast for the next 48 hours for Montreal:
Short term forecast
This weather forecast is automatically refreshed every 3 hours.

Hourly Experimental Forecast for the next 48 hours ®

Overall summary: Flurries starting later this morning, continuing until this evening.

 Date & Hour   Temp   Feel   Baro   Hum   Speed & Bearing   Wind Gust   Precip.%   Precip.   Visibility   Cloud cover   Conditions 
 20/11/2019 - 08:00  0.2°C  0.2°C  1016.7 hPa  92%  3.3 km/h   8.4 km/h  100%  0.17 mm/h  8.9km  100%  Flurries (1–3 cm.) 
 20/11/2019 - 09:00  0.2°C  0.2°C  1016.8 hPa  91%  4.3 km/h   8.2 km/h  24%  0.24 mm/h  5.8km  97%  Overcast 
 20/11/2019 - 10:00  0.1°C  -1.5°C  1016.9 hPa  92%  5.0 km/h   7.2 km/h  28%  0.24 mm/h  3.3km  87%  Mostly Cloudy 
 20/11/2019 - 11:00  0.6°C  -1.2°C  1017.1 hPa  92%  5.6 km/h   8.6 km/h  29%  0.27 mm/h  3.2km  68%  Foggy 
 20/11/2019 - 12:00  1.1°C  -0.8°C  1017.2 hPa  92%  6.2 km/h   9.7 km/h  32%  0.28 mm/h  5.1km  72%  Mostly Cloudy 
 20/11/2019 - 13:00  1.5°C  -0.4°C  1017.5 hPa  91%  6.3 km/h   9.8 km/h  29%  0.19 mm/h  7.4km  77%  Mostly Cloudy 
 20/11/2019 - 14:00  1.6°C  -0.1°C  1017.8 hPa  90%  6.0 km/h   9.5 km/h  34%  0.20 mm/h  5.9km  94%  Overcast 
 20/11/2019 - 15:00  1.6°C  -0.3°C  1018.2 hPa  91%  6.3 km/h   10.6 km/h  43%  0.26 mm/h  5.5km  93%  Possible Flurries 
 20/11/2019 - 16:00  1.5°C  -0.5°C  1018.4 hPa  91%  6.7 km/h   12.7 km/h  44%  0.22 mm/h  0.7km  90%  Possible Flurries 
 20/11/2019 - 17:00  1.4°C  -0.6°C  1018.7 hPa  90%  6.6 km/h   13.1 km/h  35%  0.14 mm/h  0.7km  78%  Foggy 
 20/11/2019 - 18:00  1.5°C  -0.5°C  1019.0 hPa  91%  6.5 km/h   13.0 km/h  27%  0.09 mm/h  4.6km  74%  Mostly Cloudy 
 20/11/2019 - 19:00  1.4°C  -0.7°C  1019.4 hPa  92%  6.6 km/h   12.6 km/h  19%  0.08 mm/h  5.0km  80%  Mostly Cloudy 
 20/11/2019 - 20:00  1.1°C  -1.1°C  1019.9 hPa  91%  7.0 km/h   11.0 km/h  7%  0.03 mm/h  6.9km  76%  Mostly Cloudy 
 20/11/2019 - 21:00  0.8°C  -1.7°C  1020.6 hPa  90%  7.5 km/h   8.5 km/h  4%  0.02 mm/h  7.4km  97%  Overcast 
 20/11/2019 - 22:00  0.3°C  -2.3°C  1021.3 hPa  90%  7.8 km/h   8.0 km/h  0%  --  10.6km  95%  Overcast 
 20/11/2019 - 23:00  -0.3°C  -3.0°C  1021.3 hPa  91%  7.8 km/h   8.0 km/h  2%  0.01 mm/h  13.5km  91%  Overcast 
 21/11/2019 - 00:00  -1.1°C  -3.9°C  1021.2 hPa  90%  7.7 km/h   8.0 km/h  2%  0.01 mm/h  16.1km  85%  Mostly Cloudy 
 21/11/2019 - 01:00  -1.8°C  -4.8°C  1021.2 hPa  90%  7.8 km/h   8.3 km/h  2%  0.02 mm/h  16.1km  80%  Mostly Cloudy 
 21/11/2019 - 02:00  -2.5°C  -5.7°C  1021.6 hPa  89%  8.3 km/h   8.6 km/h  2%  0.02 mm/h  16.1km  74%  Mostly Cloudy 
 21/11/2019 - 03:00  -3.3°C  -6.8°C  1022.1 hPa  89%  8.8 km/h   9.0 km/h  1%  0.01 mm/h  14.9km  68%  Mostly Cloudy 
 21/11/2019 - 04:00  -3.8°C  -7.6°C  1022.6 hPa  90%  9.2 km/h   9.3 km/h  2%  0.01 mm/h  13.6km  64%  Mostly Cloudy 
 21/11/2019 - 05:00  -4.1°C  -7.8°C  1022.9 hPa  91%  8.9 km/h   9.6 km/h  2%  0.01 mm/h  13.5km  64%  Mostly Cloudy 
 21/11/2019 - 06:00  -4.0°C  -7.5°C  1023.1 hPa  93%  8.5 km/h   9.9 km/h  2%  0.01 mm/h  13.9km  64%  Mostly Cloudy 
 21/11/2019 - 07:00  -3.8°C  -7.2°C  1023.2 hPa  94%  8.1 km/h   10.4 km/h  2%  0.01 mm/h  14.1km  65%  Mostly Cloudy 
 21/11/2019 - 08:00  -3.0°C  -6.2°C  1023.1 hPa  93%  7.9 km/h   11.0 km/h  2%  0.01 mm/h  14.0km  68%  Mostly Cloudy 
 21/11/2019 - 09:00  -2.3°C  -5.3°C  1022.9 hPa  93%  7.8 km/h   11.8 km/h  3%  0.01 mm/h  13.7km  74%  Mostly Cloudy 
 21/11/2019 - 10:00  -1.5°C  -4.4°C  1022.5 hPa  91%  7.9 km/h   12.8 km/h  4%  0.01 mm/h  13.3km  78%  Mostly Cloudy 
 21/11/2019 - 11:00  -0.8°C  -3.8°C  1021.9 hPa  90%  8.5 km/h   14.3 km/h  4%  0.01 mm/h  13.2km  79%  Mostly Cloudy 
 21/11/2019 - 12:00  0.0°C  -3.1°C  1021.2 hPa  90%  9.2 km/h   15.9 km/h  5%  0.01 mm/h  13.4km  80%  Mostly Cloudy 
 21/11/2019 - 13:00  0.6°C  -2.4°C  1020.4 hPa  88%  9.6 km/h   16.8 km/h  6%  0.01 mm/h  13.7km  82%  Mostly Cloudy 
 21/11/2019 - 14:00  0.9°C  -1.9°C  1019.6 hPa  85%  8.9 km/h   16.5 km/h  6%  0.01 mm/h  13.7km  87%  Mostly Cloudy 
 21/11/2019 - 15:00  0.8°C  -1.8°C  1018.8 hPa  85%  7.9 km/h   15.5 km/h  6%  0.01 mm/h  13.8km  94%  Overcast 
 21/11/2019 - 16:00  0.6°C  -1.8°C  1018.2 hPa  85%  7.3 km/h   15.3 km/h  6%  0.01 mm/h  13.1km  98%  Overcast 
 21/11/2019 - 17:00  0.1°C  -2.4°C  1017.7 hPa  86%  7.6 km/h   16.4 km/h  6%  0.01 mm/h  13.5km  100%  Overcast 
 21/11/2019 - 18:00  -0.1°C  -2.9°C  1017.2 hPa  88%  8.4 km/h   18.3 km/h  0%  --  14.2km  100%  Overcast 
 21/11/2019 - 19:00  -0.2°C  -3.4°C  1016.5 hPa  91%  9.6 km/h   21.0 km/h  5%  0.01 mm/h  14.9km  99%  Overcast 
 21/11/2019 - 20:00  0.0°C  -3.6°C  1015.2 hPa  91%  11.3 km/h   24.9 km/h  4%  0.02 mm/h  15.1km  100%  Overcast 
 21/11/2019 - 21:00  0.4°C  -3.6°C  1013.7 hPa  92%  13.4 km/h   29.7 km/h  7%  0.07 mm/h  15.0km  100%  Overcast 
 21/11/2019 - 22:00  0.8°C  -3.4°C  1012.0 hPa  93%  15.1 km/h   33.5 km/h  19%  0.12 mm/h  15.4km  100%  Overcast 
 21/11/2019 - 23:00  1.2°C  -3.2°C  1010.3 hPa  95%  16.3 km/h   36.0 km/h  29%  0.18 mm/h  16.1km  100%  Overcast 
 22/11/2019 - 00:00  1.6°C  -2.8°C  1008.4 hPa  96%  17.2 km/h   37.5 km/h  42%  0.28 mm/h  16.1km  100%  Possible Drizzle 
 22/11/2019 - 01:00  2.0°C  -2.5°C  1006.6 hPa  97%  17.9 km/h   38.1 km/h  43%  0.39 mm/h  16.1km  100%  Possible Drizzle 
 22/11/2019 - 02:00  2.3°C  -2.1°C  1005.0 hPa  97%  18.4 km/h   37.0 km/h  47%  0.48 mm/h  16.1km  100%  Possible Light Rain 
 22/11/2019 - 03:00  2.6°C  -1.8°C  1003.4 hPa  98%  18.8 km/h   35.0 km/h  53%  0.57 mm/h  11.8km  100%  Possible Light Rain 
 22/11/2019 - 04:00  2.9°C  -1.4°C  1001.9 hPa  98%  19.1 km/h   34.8 km/h  59%  0.65 mm/h  8.4km  100%  Possible Light Rain 
 22/11/2019 - 05:00  3.3°C  -1.0°C  1000.4 hPa  98%  19.2 km/h   37.3 km/h  63%  0.64 mm/h  8.3km  100%  Possible Light Rain 
 22/11/2019 - 06:00  3.7°C  -0.5°C  998.8 hPa  100%  19.2 km/h   41.5 km/h  64%  0.59 mm/h  9.8km  100%  Possible Light Rain 
 22/11/2019 - 07:00  3.8°C  -0.5°C  997.5 hPa  100%  20.0 km/h   46.5 km/h  66%  0.53 mm/h  11.6km  100%  Possible Light Rain 
Test

 

Past weather and reports

Past weatherFind in this section the past weather conditions, weather archive, graphics, reports and statistics.

Current conditions

Current weather condition for MontrealAll you need to know about the current weather conditions for Montreal. Weather data is updated every 10 minutes.

Weather forecast

Current Montreal weatherSince 2004, celinium.com website has provided accurate weather forecast for Montreal's island.